world map with TAH marked

TAH - Airport

This information may not be accurate or current and is not valid for navigation or flight planning. No warranty of fitness for any purpose is made or implied.

flag of Vanuatu

Donate via PayPal

Additional information is available on the NEW Great Circle Mapper

Location
City:  Tanna, Tanna Island, Taféa, Vanuatu
Near (Alt.):White Grass
ICAO / IATA:NVVW / TAH

Details
Type:Airport (Aerodrome, Airfield)
Latitude:19°27'18"S (-19.454999)
Longitude:169°13'24"E (169.223333)
Elevation:19 ft (6 m)
Runways:1
Longest:4035 × 98 ft (1230 × 30 m)

Time
Timezone:UTC+11 (DST+12)

Weather
METAR:NVVW  (expired)
TAF:NVVW  011630Z 0118/0218 VRB03KT 9999 SCT020 BKN040 INTER 0118/0124 8000 SHRA BKN012

Related Locations
Nearby:
Farthest:TIY: 12360 mi / 19892 km
Tidjikja, MR

Find:

   beyond  
but within

Other Information
Maps:
Links:
Sources:

  


 


Great Circle Mapper   Great Circle Mapper
Great Circle Mapper FAQ   Great Circle Mapper FAQ
  Karl's Home Page
KLS²   KLS² Home
   GC on Facebook
Airlines of the World   Airlines of the World
Donate via PayPal


Copyright © 2004-2014, Karl L. Swartz. All rights reserved.
All trademarks mentioned herein belong to their respective owners.

Please see credits for attribution and copyright information.

Karl Swartz <karl@kls2.com>
  Powered by FreeBSD
Valid HTML 4.01!
Labeled with ICRA
hCard Microformat
Geo Microformat